Antelope, California
Current Conditions -  °F | °C
As of 10:45 PM on Friday 31 Oct 2014 (Local Time) from KMHR Reporting Station
Light Rain Light Rain  
Wind Chill: 55°   Ceiling: 1700
Heat Index: 55°   Visibility: 10mi
Dew Point: 55°   Wind: 6mph
Humidity: 100%   Direction: 140°SE
Pressure: 29.73"   Gusts: NA
Location:  38.72°N, 121.37°W
Report Text: KMHR 010545Z 14005KT 10SM -RA OVC017 13/13 A2973
Loading
Personal Weather Stations






























Interactive Weather Map
Tropical Storm Tracking
New forecast layout! Learn more

10-Day Weather Forecast

Advertisements
Track Severe Weather on mobile